sensor_id;sensor_type;location;lat;lon;timestamp;temperature;humidity
8178;DHT22;4130;48.740;9.132;2023-12-14T00:02:15;5.40;99.90
8178;DHT22;4130;48.740;9.132;2023-12-14T00:04:42;6.70;99.90
8178;DHT22;4130;48.740;9.132;2023-12-14T00:07:09;5.40;99.90
8178;DHT22;4130;48.740;9.132;2023-12-14T00:09:41;5.50;99.90
8178;DHT22;4130;48.740;9.132;2023-12-14T00:12:08;5.40;99.90
8178;DHT22;4130;48.740;9.132;2023-12-14T00:14:35;6.60;99.90
8178;DHT22;4130;48.740;9.132;2023-12-14T00:17:01;5.40;99.90
8178;DHT22;4130;48.740;9.132;2023-12-14T00:19:28;5.40;99.90
8178;DHT22;4130;48.740;9.132;2023-12-14T00:21:55;5.40;99.90
8178;DHT22;4130;48.740;9.132;2023-12-14T00:24:22;5.40;99.90
8178;DHT22;4130;48.740;9.132;2023-12-14T00:26:50;5.40;99.90
8178;DHT22;4130;48.740;9.132;2023-12-14T00:29:17;5.80;99.90
8178;DHT22;4130;48.740;9.132;2023-12-14T00:31:44;5.50;99.90
8178;DHT22;4130;48.740;9.132;2023-12-14T00:34:10;6.20;99.90
8178;DHT22;4130;48.740;9.132;2023-12-14T00:36:37;5.50;99.90
8178;DHT22;4130;48.740;9.132;2023-12-14T00:39:04;5.50;99.90
8178;DHT22;4130;48.740;9.132;2023-12-14T00:41:31;5.50;99.90
8178;DHT22;4130;48.740;9.132;2023-12-14T00:43:59;5.50;99.90
8178;DHT22;4130;48.740;9.132;2023-12-14T00:46:26;5.50;99.90
8178;DHT22;4130;48.740;9.132;2023-12-14T00:48:53;5.50;99.90
8178;DHT22;4130;48.740;9.132;2023-12-14T00:51:19;5.50;99.90
8178;DHT22;4130;48.740;9.132;2023-12-14T00:53:46;5.50;99.90
8178;DHT22;4130;48.740;9.132;2023-12-14T00:56:13;5.50;99.90
8178;DHT22;4130;48.740;9.132;2023-12-14T00:58:40;5.50;99.90
8178;DHT22;4130;48.740;9.132;2023-12-14T01:01:08;5.40;99.90
8178;DHT22;4130;48.740;9.132;2023-12-14T01:03:35;5.40;99.90
8178;DHT22;4130;48.740;9.132;2023-12-14T01:06:02;5.40;99.90
8178;DHT22;4130;48.740;9.132;2023-12-14T01:08:28;5.40;99.90
8178;DHT22;4130;48.740;9.132;2023-12-14T01:10:55;5.40;99.90
8178;DHT22;4130;48.740;9.132;2023-12-14T01:13:22;5.40;99.90
8178;DHT22;4130;48.740;9.132;2023-12-14T01:15:49;5.50;99.90
8178;DHT22;4130;48.740;9.132;2023-12-14T01:18:18;5.50;99.90
8178;DHT22;4130;48.740;9.132;2023-12-14T01:20:45;6.10;99.90
8178;DHT22;4130;48.740;9.132;2023-12-14T01:23:12;5.40;99.90
8178;DHT22;4130;48.740;9.132;2023-12-14T01:25:39;5.40;99.90
8178;DHT22;4130;48.740;9.132;2023-12-14T01:28:06;5.40;99.90
8178;DHT22;4130;48.740;9.132;2023-12-14T01:30:33;5.80;99.90
8178;DHT22;4130;48.740;9.132;2023-12-14T01:33:00;5.40;99.90
8178;DHT22;4130;48.740;9.132;2023-12-14T01:35:28;6.30;99.90
8178;DHT22;4130;48.740;9.132;2023-12-14T01:37:55;5.40;99.90
8178;DHT22;4130;48.740;9.132;2023-12-14T01:40:22;5.60;99.90
8178;DHT22;4130;48.740;9.132;2023-12-14T01:42:49;5.40;99.90
8178;DHT22;4130;48.740;9.132;2023-12-14T01:45:15;5.40;99.90
8178;DHT22;4130;48.740;9.132;2023-12-14T01:47:43;5.40;99.90
8178;DHT22;4130;48.740;9.132;2023-12-14T01:50:10;5.40;99.90
8178;DHT22;4130;48.740;9.132;2023-12-14T01:52:38;5.40;99.90
8178;DHT22;4130;48.740;9.132;2023-12-14T01:55:06;5.80;99.90
8178;DHT22;4130;48.740;9.132;2023-12-14T01:57:33;5.40;99.90
8178;DHT22;4130;48.740;9.132;2023-12-14T01:59:59;5.40;99.90
8178;DHT22;4130;48.740;9.132;2023-12-14T02:02:26;5.40;99.90
8178;DHT22;4130;48.740;9.132;2023-12-14T02:04:53;6.70;99.90
8178;DHT22;4130;48.740;9.132;2023-12-14T02:07:20;5.40;99.90
8178;DHT22;4130;48.740;9.132;2023-12-14T02:09:48;5.40;99.90
8178;DHT22;4130;48.740;9.132;2023-12-14T02:12:16;5.40;99.90
8178;DHT22;4130;48.740;9.132;2023-12-14T02:14:43;5.40;99.90
8178;DHT22;4130;48.740;9.132;2023-12-14T02:17:10;5.40;99.90
8178;DHT22;4130;48.740;9.132;2023-12-14T02:19:37;5.30;99.90
8178;DHT22;4130;48.740;9.132;2023-12-14T02:22:04;5.90;99.90
8178;DHT22;4130;48.740;9.132;2023-12-14T02:24:32;5.30;99.90
8178;DHT22;4130;48.740;9.132;2023-12-14T02:26:59;5.30;99.90
8178;DHT22;4130;48.740;9.132;2023-12-14T02:29:26;5.40;99.90
8178;DHT22;4130;48.740;9.132;2023-12-14T02:31:53;5.30;99.90
8178;DHT22;4130;48.740;9.132;2023-12-14T02:34:19;5.30;99.90
8178;DHT22;4130;48.740;9.132;2023-12-14T02:36:46;5.40;99.90
8178;DHT22;4130;48.740;9.132;2023-12-14T02:39:13;5.30;99.90
8178;DHT22;4130;48.740;9.132;2023-12-14T02:41:41;5.30;99.90
8178;DHT22;4130;48.740;9.132;2023-12-14T02:44:08;5.40;99.90
8178;DHT22;4130;48.740;9.132;2023-12-14T02:46:35;5.30;99.90
8178;DHT22;4130;48.740;9.132;2023-12-14T02:49:02;5.40;99.90
8178;DHT22;4130;48.740;9.132;2023-12-14T02:51:28;5.30;99.90
8178;DHT22;4130;48.740;9.132;2023-12-14T02:53:55;5.40;99.90
8178;DHT22;4130;48.740;9.132;2023-12-14T02:56:23;5.40;99.90
8178;DHT22;4130;48.740;9.132;2023-12-14T02:58:52;5.40;99.90
8178;DHT22;4130;48.740;9.132;2023-12-14T03:01:19;5.40;99.90
8178;DHT22;4130;48.740;9.132;2023-12-14T03:03:47;5.50;99.90
8178;DHT22;4130;48.740;9.132;2023-12-14T03:06:14;5.90;99.90
8178;DHT22;4130;48.740;9.132;2023-12-14T03:08:40;5.80;99.90
8178;DHT22;4130;48.740;9.132;2023-12-14T03:11:07;6.20;99.90
8178;DHT22;4130;48.740;9.132;2023-12-14T03:13:34;5.40;99.90
8178;DHT22;4130;48.740;9.132;2023-12-14T03:16:02;5.40;99.90
8178;DHT22;4130;48.740;9.132;2023-12-14T03:18:29;5.40;99.90
8178;DHT22;4130;48.740;9.132;2023-12-14T03:20:56;5.40;99.90
8178;DHT22;4130;48.740;9.132;2023-12-14T03:23:23;5.40;99.90
8178;DHT22;4130;48.740;9.132;2023-12-14T03:25:50;5.40;99.90
8178;DHT22;4130;48.740;9.132;2023-12-14T03:28:17;5.40;99.90
8178;DHT22;4130;48.740;9.132;2023-12-14T03:30:44;6.10;99.90
8178;DHT22;4130;48.740;9.132;2023-12-14T03:33:12;5.50;99.90
8178;DHT22;4130;48.740;9.132;2023-12-14T03:35:39;5.80;99.90
8178;DHT22;4130;48.740;9.132;2023-12-14T03:38:07;6.10;99.90
8178;DHT22;4130;48.740;9.132;2023-12-14T03:40:34;5.50;99.90
8178;DHT22;4130;48.740;9.132;2023-12-14T03:43:01;5.60;99.90
8178;DHT22;4130;48.740;9.132;2023-12-14T03:45:29;5.90;99.90
8178;DHT22;4130;48.740;9.132;2023-12-14T03:47:56;5.70;99.90
8178;DHT22;4130;48.740;9.132;2023-12-14T03:50:25;5.60;99.90
8178;DHT22;4130;48.740;9.132;2023-12-14T03:52:51;5.70;99.90
8178;DHT22;4130;48.740;9.132;2023-12-14T03:55:18;5.60;99.90
8178;DHT22;4130;48.740;9.132;2023-12-14T03:57:45;7.10;99.90
8178;DHT22;4130;48.740;9.132;2023-12-14T04:00:13;5.60;99.90
8178;DHT22;4130;48.740;9.132;2023-12-14T04:02:40;5.60;99.90
8178;DHT22;4130;48.740;9.132;2023-12-14T04:05:07;5.50;99.90
8178;DHT22;4130;48.740;9.132;2023-12-14T04:07:36;5.90;99.90
8178;DHT22;4130;48.740;9.132;2023-12-14T04:10:06;6.60;99.90
8178;DHT22;4130;48.740;9.132;2023-12-14T04:12:33;5.60;99.90
8178;DHT22;4130;48.740;9.132;2023-12-14T04:15:00;5.60;99.90
8178;DHT22;4130;48.740;9.132;2023-12-14T04:17:27;6.10;99.90
8178;DHT22;4130;48.740;9.132;2023-12-14T04:19:53;5.60;99.90
8178;DHT22;4130;48.740;9.132;2023-12-14T04:22:20;5.60;99.90
8178;DHT22;4130;48.740;9.132;2023-12-14T04:24:49;5.60;99.90
8178;DHT22;4130;48.740;9.132;2023-12-14T04:27:17;5.60;99.90
8178;DHT22;4130;48.740;9.132;2023-12-14T04:29:43;5.60;99.90
8178;DHT22;4130;48.740;9.132;2023-12-14T04:32:11;5.70;99.90
8178;DHT22;4130;48.740;9.132;2023-12-14T04:34:37;5.70;99.90
8178;DHT22;4130;48.740;9.132;2023-12-14T04:37:04;5.70;99.90
8178;DHT22;4130;48.740;9.132;2023-12-14T04:39:32;5.80;99.90
8178;DHT22;4130;48.740;9.132;2023-12-14T04:42:00;5.70;99.90
8178;DHT22;4130;48.740;9.132;2023-12-14T04:44:27;6.20;99.90
8178;DHT22;4130;48.740;9.132;2023-12-14T04:46:54;6.20;99.90
8178;DHT22;4130;48.740;9.132;2023-12-14T04:49:21;5.70;99.90
8178;DHT22;4130;48.740;9.132;2023-12-14T04:51:58;5.70;99.90
8178;DHT22;4130;48.740;9.132;2023-12-14T04:54:25;5.70;99.90
8178;DHT22;4130;48.740;9.132;2023-12-14T04:56:52;5.80;99.90
8178;DHT22;4130;48.740;9.132;2023-12-14T04:59:20;5.70;99.90
8178;DHT22;4130;48.740;9.132;2023-12-14T05:01:47;5.70;99.90
8178;DHT22;4130;48.740;9.132;2023-12-14T05:04:13;5.70;99.90
8178;DHT22;4130;48.740;9.132;2023-12-14T05:06:41;5.70;99.90
8178;DHT22;4130;48.740;9.132;2023-12-14T05:09:08;5.70;99.90
8178;DHT22;4130;48.740;9.132;2023-12-14T05:11:37;5.80;99.90
8178;DHT22;4130;48.740;9.132;2023-12-14T05:14:05;5.70;99.90
8178;DHT22;4130;48.740;9.132;2023-12-14T05:16:51;6.00;99.90
8178;DHT22;4130;48.740;9.132;2023-12-14T05:19:18;5.90;99.90
8178;DHT22;4130;48.740;9.132;2023-12-14T05:21:45;7.10;99.90
8178;DHT22;4130;48.740;9.132;2023-12-14T05:24:12;5.90;99.90
8178;DHT22;4130;48.740;9.132;2023-12-14T05:26:39;5.80;99.90
8178;DHT22;4130;48.740;9.132;2023-12-14T05:29:05;4.10;99.90
8178;DHT22;4130;48.740;9.132;2023-12-14T05:31:32;5.90;99.90
8178;DHT22;4130;48.740;9.132;2023-12-14T05:34:00;5.70;99.90
8178;DHT22;4130;48.740;9.132;2023-12-14T05:36:32;5.80;99.90
8178;DHT22;4130;48.740;9.132;2023-12-14T05:38:58;5.80;99.90
8178;DHT22;4130;48.740;9.132;2023-12-14T05:41:25;5.90;99.90
8178;DHT22;4130;48.740;9.132;2023-12-14T05:43:52;5.90;99.90
8178;DHT22;4130;48.740;9.132;2023-12-14T05:46:22;5.90;99.90
8178;DHT22;4130;48.740;9.132;2023-12-14T05:48:49;5.90;99.90
8178;DHT22;4130;48.740;9.132;2023-12-14T05:51:27;5.80;99.90
8178;DHT22;4130;48.740;9.132;2023-12-14T05:53:54;5.80;99.90
8178;DHT22;4130;48.740;9.132;2023-12-14T05:56:21;6.10;99.90
8178;DHT22;4130;48.740;9.132;2023-12-14T05:58:48;5.70;99.90
8178;DHT22;4130;48.740;9.132;2023-12-14T06:01:16;5.80;99.90
8178;DHT22;4130;48.740;9.132;2023-12-14T06:03:44;5.80;99.90
8178;DHT22;4130;48.740;9.132;2023-12-14T06:06:11;5.80;99.90
8178;DHT22;4130;48.740;9.132;2023-12-14T06:08:40;5.90;99.90
8178;DHT22;4130;48.740;9.132;2023-12-14T06:11:13;6.00;99.90
8178;DHT22;4130;48.740;9.132;2023-12-14T06:13:40;5.90;99.90
8178;DHT22;4130;48.740;9.132;2023-12-14T06:16:08;5.90;99.90
8178;DHT22;4130;48.740;9.132;2023-12-14T06:18:39;5.90;99.90
8178;DHT22;4130;48.740;9.132;2023-12-14T06:21:07;5.90;99.90
8178;DHT22;4130;48.740;9.132;2023-12-14T06:23:34;5.90;99.90
8178;DHT22;4130;48.740;9.132;2023-12-14T06:26:04;6.10;99.90
8178;DHT22;4130;48.740;9.132;2023-12-14T06:28:31;5.90;99.90
8178;DHT22;4130;48.740;9.132;2023-12-14T06:30:57;5.90;99.90
8178;DHT22;4130;48.740;9.132;2023-12-14T06:33:26;5.90;99.90
8178;DHT22;4130;48.740;9.132;2023-12-14T06:35:53;5.90;99.90
8178;DHT22;4130;48.740;9.132;2023-12-14T06:38:20;6.10;99.90
8178;DHT22;4130;48.740;9.132;2023-12-14T06:40:47;6.00;99.90
8178;DHT22;4130;48.740;9.132;2023-12-14T06:43:16;6.40;99.90
8178;DHT22;4130;48.740;9.132;2023-12-14T06:45:43;6.00;99.90
8178;DHT22;4130;48.740;9.132;2023-12-14T06:48:10;6.00;99.90
8178;DHT22;4130;48.740;9.132;2023-12-14T06:50:36;6.50;99.90
8178;DHT22;4130;48.740;9.132;2023-12-14T06:53:07;6.10;99.90
8178;DHT22;4130;48.740;9.132;2023-12-14T06:55:34;5.90;99.90
8178;DHT22;4130;48.740;9.132;2023-12-14T06:58:01;6.90;99.90
8178;DHT22;4130;48.740;9.132;2023-12-14T07:00:30;5.80;99.90
8178;DHT22;4130;48.740;9.132;2023-12-14T07:02:56;6.00;99.90
8178;DHT22;4130;48.740;9.132;2023-12-14T07:05:23;6.80;99.90
8178;DHT22;4130;48.740;9.132;2023-12-14T07:07:50;6.20;99.90
8178;DHT22;4130;48.740;9.132;2023-12-14T07:10:17;6.80;99.90
8178;DHT22;4130;48.740;9.132;2023-12-14T07:12:43;5.80;99.90
8178;DHT22;4130;48.740;9.132;2023-12-14T07:15:10;5.80;99.90
8178;DHT22;4130;48.740;9.132;2023-12-14T07:17:38;6.60;99.90
8178;DHT22;4130;48.740;9.132;2023-12-14T07:20:06;5.80;99.90
8178;DHT22;4130;48.740;9.132;2023-12-14T07:22:34;5.90;99.90
8178;DHT22;4130;48.740;9.132;2023-12-14T07:25:01;5.80;99.90
8178;DHT22;4130;48.740;9.132;2023-12-14T07:27:29;5.90;99.90
8178;DHT22;4130;48.740;9.132;2023-12-14T07:29:55;5.90;99.90
8178;DHT22;4130;48.740;9.132;2023-12-14T07:32:22;5.90;99.90
8178;DHT22;4130;48.740;9.132;2023-12-14T07:34:50;5.90;99.90
8178;DHT22;4130;48.740;9.132;2023-12-14T07:37:17;5.90;99.90
8178;DHT22;4130;48.740;9.132;2023-12-14T07:39:44;6.60;99.90
8178;DHT22;4130;48.740;9.132;2023-12-14T07:42:11;6.00;99.90
8178;DHT22;4130;48.740;9.132;2023-12-14T07:44:42;6.20;99.90
8178;DHT22;4130;48.740;9.132;2023-12-14T07:47:09;5.90;99.90
8178;DHT22;4130;48.740;9.132;2023-12-14T07:49:36;5.90;99.90
8178;DHT22;4130;48.740;9.132;2023-12-14T07:52:05;5.90;99.90
8178;DHT22;4130;48.740;9.132;2023-12-14T07:54:32;5.80;99.90
8178;DHT22;4130;48.740;9.132;2023-12-14T07:57:00;5.90;99.90
8178;DHT22;4130;48.740;9.132;2023-12-14T07:59:26;6.10;99.90
8178;DHT22;4130;48.740;9.132;2023-12-14T08:01:55;5.90;99.90
8178;DHT22;4130;48.740;9.132;2023-12-14T08:04:22;5.90;99.90
8178;DHT22;4130;48.740;9.132;2023-12-14T08:06:49;5.90;99.90
8178;DHT22;4130;48.740;9.132;2023-12-14T08:09:17;5.90;99.90
8178;DHT22;4130;48.740;9.132;2023-12-14T08:11:44;5.90;99.90
8178;DHT22;4130;48.740;9.132;2023-12-14T08:14:11;6.10;99.90
8178;DHT22;4130;48.740;9.132;2023-12-14T08:16:38;5.90;99.90
8178;DHT22;4130;48.740;9.132;2023-12-14T08:19:05;6.40;99.90
8178;DHT22;4130;48.740;9.132;2023-12-14T08:21:32;6.10;99.90
8178;DHT22;4130;48.740;9.132;2023-12-14T08:23:58;6.20;99.90
8178;DHT22;4130;48.740;9.132;2023-12-14T08:26:27;6.10;99.90
8178;DHT22;4130;48.740;9.132;2023-12-14T08:28:54;6.50;99.90
8178;DHT22;4130;48.740;9.132;2023-12-14T08:31:21;6.20;99.90
8178;DHT22;4130;48.740;9.132;2023-12-14T08:33:48;6.60;99.90
8178;DHT22;4130;48.740;9.132;2023-12-14T08:36:15;6.30;99.90
8178;DHT22;4130;48.740;9.132;2023-12-14T08:38:43;6.40;99.90
8178;DHT22;4130;48.740;9.132;2023-12-14T08:41:12;6.50;99.90
8178;DHT22;4130;48.740;9.132;2023-12-14T08:43:41;7.10;99.90
8178;DHT22;4130;48.740;9.132;2023-12-14T08:46:08;6.60;99.90
8178;DHT22;4130;48.740;9.132;2023-12-14T08:48:35;7.10;99.90
8178;DHT22;4130;48.740;9.132;2023-12-14T08:51:03;6.70;99.90
8178;DHT22;4130;48.740;9.132;2023-12-14T08:53:30;6.60;99.90
8178;DHT22;4130;48.740;9.132;2023-12-14T08:55:57;6.70;99.90
8178;DHT22;4130;48.740;9.132;2023-12-14T08:58:24;6.80;99.90
8178;DHT22;4130;48.740;9.132;2023-12-14T09:00:53;6.80;99.90
8178;DHT22;4130;48.740;9.132;2023-12-14T09:03:20;6.70;99.90
8178;DHT22;4130;48.740;9.132;2023-12-14T09:05:47;6.70;99.90
8178;DHT22;4130;48.740;9.132;2023-12-14T09:08:14;6.60;99.90
8178;DHT22;4130;48.740;9.132;2023-12-14T09:10:41;6.60;99.90
8178;DHT22;4130;48.740;9.132;2023-12-14T09:13:08;6.70;99.90
8178;DHT22;4130;48.740;9.132;2023-12-14T09:15:35;6.70;99.90
8178;DHT22;4130;48.740;9.132;2023-12-14T09:18:03;7.00;99.90
8178;DHT22;4130;48.740;9.132;2023-12-14T09:20:31;6.80;99.90
8178;DHT22;4130;48.740;9.132;2023-12-14T09:22:57;7.00;99.90
8178;DHT22;4130;48.740;9.132;2023-12-14T09:25:24;6.80;99.90
8178;DHT22;4130;48.740;9.132;2023-12-14T09:27:51;6.80;99.90
8178;DHT22;4130;48.740;9.132;2023-12-14T09:30:18;6.80;99.90
8178;DHT22;4130;48.740;9.132;2023-12-14T09:32:45;8.00;99.90
8178;DHT22;4130;48.740;9.132;2023-12-14T09:35:14;6.80;99.90
8178;DHT22;4130;48.740;9.132;2023-12-14T09:37:40;6.40;99.90
8178;DHT22;4130;48.740;9.132;2023-12-14T09:40:08;6.90;99.90
8178;DHT22;4130;48.740;9.132;2023-12-14T09:42:38;6.90;99.90
8178;DHT22;4130;48.740;9.132;2023-12-14T09:45:07;7.00;99.90
8178;DHT22;4130;48.740;9.132;2023-12-14T09:47:35;6.90;99.90
8178;DHT22;4130;48.740;9.132;2023-12-14T09:50:02;7.20;99.90
8178;DHT22;4130;48.740;9.132;2023-12-14T09:52:31;7.10;99.90
8178;DHT22;4130;48.740;9.132;2023-12-14T09:54:59;8.40;99.90
8178;DHT22;4130;48.740;9.132;2023-12-14T09:57:26;8.20;99.90
8178;DHT22;4130;48.740;9.132;2023-12-14T09:59:53;7.40;99.90
8178;DHT22;4130;48.740;9.132;2023-12-14T10:02:25;7.30;99.90
8178;DHT22;4130;48.740;9.132;2023-12-14T10:04:51;7.30;99.90
8178;DHT22;4130;48.740;9.132;2023-12-14T10:07:18;7.50;99.90
8178;DHT22;4130;48.740;9.132;2023-12-14T10:09:47;7.90;99.90
8178;DHT22;4130;48.740;9.132;2023-12-14T10:12:14;7.80;99.90
8178;DHT22;4130;48.740;9.132;2023-12-14T10:14:40;7.70;99.90
8178;DHT22;4130;48.740;9.132;2023-12-14T10:17:16;7.50;99.90
8178;DHT22;4130;48.740;9.132;2023-12-14T10:19:43;7.50;99.90
8178;DHT22;4130;48.740;9.132;2023-12-14T10:22:10;7.60;99.90
8178;DHT22;4130;48.740;9.132;2023-12-14T10:24:37;7.50;99.90
8178;DHT22;4130;48.740;9.132;2023-12-14T10:27:07;7.50;99.90
8178;DHT22;4130;48.740;9.132;2023-12-14T10:29:33;7.50;99.90
8178;DHT22;4130;48.740;9.132;2023-12-14T10:32:03;7.40;99.90
8178;DHT22;4130;48.740;9.132;2023-12-14T10:34:32;7.50;99.90
8178;DHT22;4130;48.740;9.132;2023-12-14T10:36:59;8.60;99.90
8178;DHT22;4130;48.740;9.132;2023-12-14T10:39:29;8.70;99.90
8178;DHT22;4130;48.740;9.132;2023-12-14T10:41:57;7.70;99.90
8178;DHT22;4130;48.740;9.132;2023-12-14T10:44:27;7.70;99.90
8178;DHT22;4130;48.740;9.132;2023-12-14T10:46:55;7.80;99.90
8178;DHT22;4130;48.740;9.132;2023-12-14T10:49:23;7.90;99.90
8178;DHT22;4130;48.740;9.132;2023-12-14T10:51:50;8.00;99.90
8178;DHT22;4130;48.740;9.132;2023-12-14T10:54:18;8.70;99.90
8178;DHT22;4130;48.740;9.132;2023-12-14T10:56:45;7.90;99.90
8178;DHT22;4130;48.740;9.132;2023-12-14T10:59:15;8.20;99.90
8178;DHT22;4130;48.740;9.132;2023-12-14T11:01:43;7.90;99.90
8178;DHT22;4130;48.740;9.132;2023-12-14T11:04:10;8.10;99.90
8178;DHT22;4130;48.740;9.132;2023-12-14T11:06:40;9.20;99.90
8178;DHT22;4130;48.740;9.132;2023-12-14T11:09:12;8.00;99.90
8178;DHT22;4130;48.740;9.132;2023-12-14T11:11:42;8.10;99.90
8178;DHT22;4130;48.740;9.132;2023-12-14T11:14:11;8.20;99.90
8178;DHT22;4130;48.740;9.132;2023-12-14T11:16:38;8.30;99.90
8178;DHT22;4130;48.740;9.132;2023-12-14T11:19:28;8.40;99.90
8178;DHT22;4130;48.740;9.132;2023-12-14T11:22:12;8.60;99.90
8178;DHT22;4130;48.740;9.132;2023-12-14T11:24:50;8.70;99.90
8178;DHT22;4130;48.740;9.132;2023-12-14T11:27:20;8.90;99.90
8178;DHT22;4130;48.740;9.132;2023-12-14T11:29:48;9.00;99.90
8178;DHT22;4130;48.740;9.132;2023-12-14T11:32:16;9.20;99.90
8178;DHT22;4130;48.740;9.132;2023-12-14T11:34:45;9.30;99.90
8178;DHT22;4130;48.740;9.132;2023-12-14T11:37:12;10.10;99.90
8178;DHT22;4130;48.740;9.132;2023-12-14T11:39:39;9.30;99.90
8178;DHT22;4130;48.740;9.132;2023-12-14T11:42:06;9.10;99.90
8178;DHT22;4130;48.740;9.132;2023-12-14T11:44:35;9.70;99.90
8178;DHT22;4130;48.740;9.132;2023-12-14T11:47:02;9.80;99.90
8178;DHT22;4130;48.740;9.132;2023-12-14T11:49:29;8.70;99.90
8178;DHT22;4130;48.740;9.132;2023-12-14T11:52:02;8.70;99.90
8178;DHT22;4130;48.740;9.132;2023-12-14T11:54:30;8.50;99.90
8178;DHT22;4130;48.740;9.132;2023-12-14T11:56:57;8.20;99.90
8178;DHT22;4130;48.740;9.132;2023-12-14T11:59:24;7.90;99.90
8178;DHT22;4130;48.740;9.132;2023-12-14T12:01:57;7.70;99.90
8178;DHT22;4130;48.740;9.132;2023-12-14T12:04:24;7.40;99.90
8178;DHT22;4130;48.740;9.132;2023-12-14T12:07:00;7.30;99.90
8178;DHT22;4130;48.740;9.132;2023-12-14T12:09:36;7.30;99.90
8178;DHT22;4130;48.740;9.132;2023-12-14T12:12:07;7.30;99.90
8178;DHT22;4130;48.740;9.132;2023-12-14T12:14:35;7.30;99.90
8178;DHT22;4130;48.740;9.132;2023-12-14T12:17:03;7.30;99.90
8178;DHT22;4130;48.740;9.132;2023-12-14T12:19:31;7.30;99.90
8178;DHT22;4130;48.740;9.132;2023-12-14T12:21:59;7.50;99.90
8178;DHT22;4130;48.740;9.132;2023-12-14T12:24:26;7.40;99.90
8178;DHT22;4130;48.740;9.132;2023-12-14T12:26:53;7.50;99.90
8178;DHT22;4130;48.740;9.132;2023-12-14T12:29:20;7.40;99.90
8178;DHT22;4130;48.740;9.132;2023-12-14T12:31:47;7.30;99.90
8178;DHT22;4130;48.740;9.132;2023-12-14T12:34:14;7.50;99.90
8178;DHT22;4130;48.740;9.132;2023-12-14T12:36:41;7.10;99.90
8178;DHT22;4130;48.740;9.132;2023-12-14T12:39:09;7.00;99.90
8178;DHT22;4130;48.740;9.132;2023-12-14T12:41:36;7.00;99.90
8178;DHT22;4130;48.740;9.132;2023-12-14T12:44:05;6.60;99.90
8178;DHT22;4130;48.740;9.132;2023-12-14T12:46:33;6.50;99.90
8178;DHT22;4130;48.740;9.132;2023-12-14T12:49:01;6.40;99.90
8178;DHT22;4130;48.740;9.132;2023-12-14T12:51:28;7.20;99.90
8178;DHT22;4130;48.740;9.132;2023-12-14T12:53:56;6.90;99.90
8178;DHT22;4130;48.740;9.132;2023-12-14T12:56:25;6.30;99.90
8178;DHT22;4130;48.740;9.132;2023-12-14T12:58:53;6.20;99.90
8178;DHT22;4130;48.740;9.132;2023-12-14T13:01:20;7.40;99.90
8178;DHT22;4130;48.740;9.132;2023-12-14T13:03:51;6.20;99.90
8178;DHT22;4130;48.740;9.132;2023-12-14T13:06:18;7.40;99.90
8178;DHT22;4130;48.740;9.132;2023-12-14T13:08:44;6.40;99.90
8178;DHT22;4130;48.740;9.132;2023-12-14T13:11:11;6.40;99.90
8178;DHT22;4130;48.740;9.132;2023-12-14T13:13:52;6.40;99.90
8178;DHT22;4130;48.740;9.132;2023-12-14T13:37:17;6.60;99.90
8178;DHT22;4130;48.740;9.132;2023-12-14T13:39:43;6.80;99.90
8178;DHT22;4130;48.740;9.132;2023-12-14T13:42:10;6.60;99.90
8178;DHT22;4130;48.740;9.132;2023-12-14T13:44:37;6.50;99.90
8178;DHT22;4130;48.740;9.132;2023-12-14T13:47:05;6.50;99.90
8178;DHT22;4130;48.740;9.132;2023-12-14T13:49:32;6.50;99.90
8178;DHT22;4130;48.740;9.132;2023-12-14T13:51:59;6.60;99.90
8178;DHT22;4130;48.740;9.132;2023-12-14T13:54:27;6.50;99.90
8178;DHT22;4130;48.740;9.132;2023-12-14T13:56:54;6.40;99.90
8178;DHT22;4130;48.740;9.132;2023-12-14T13:59:21;6.50;99.90
8178;DHT22;4130;48.740;9.132;2023-12-14T14:01:48;7.60;99.90
8178;DHT22;4130;48.740;9.132;2023-12-14T14:04:16;6.50;99.90
8178;DHT22;4130;48.740;9.132;2023-12-14T14:06:43;6.60;99.90
8178;DHT22;4130;48.740;9.132;2023-12-14T14:09:10;6.70;99.90
8178;DHT22;4130;48.740;9.132;2023-12-14T14:11:38;7.30;99.90
8178;DHT22;4130;48.740;9.132;2023-12-14T14:14:10;6.60;99.90
8178;DHT22;4130;48.740;9.132;2023-12-14T14:16:37;6.60;99.90
8178;DHT22;4130;48.740;9.132;2023-12-14T14:19:04;6.60;99.90
8178;DHT22;4130;48.740;9.132;2023-12-14T14:21:31;6.50;99.90
8178;DHT22;4130;48.740;9.132;2023-12-14T14:23:58;7.50;99.90
8178;DHT22;4130;48.740;9.132;2023-12-14T14:26:24;6.50;99.90
8178;DHT22;4130;48.740;9.132;2023-12-14T14:28:52;6.50;99.90
8178;DHT22;4130;48.740;9.132;2023-12-14T14:31:21;7.50;99.90
8178;DHT22;4130;48.740;9.132;2023-12-14T14:33:48;7.20;99.90
8178;DHT22;4130;48.740;9.132;2023-12-14T14:36:17;6.40;99.90
8178;DHT22;4130;48.740;9.132;2023-12-14T14:38:49;6.60;99.90
8178;DHT22;4130;48.740;9.132;2023-12-14T14:41:20;6.70;99.90
8178;DHT22;4130;48.740;9.132;2023-12-14T14:43:47;7.90;99.90
8178;DHT22;4130;48.740;9.132;2023-12-14T14:46:22;6.30;99.90
8178;DHT22;4130;48.740;9.132;2023-12-14T14:48:50;6.40;99.90
8178;DHT22;4130;48.740;9.132;2023-12-14T14:51:17;6.90;99.90
8178;DHT22;4130;48.740;9.132;2023-12-14T14:53:44;7.00;99.90
8178;DHT22;4130;48.740;9.132;2023-12-14T14:56:12;6.30;99.90
8178;DHT22;4130;48.740;9.132;2023-12-14T14:58:39;6.20;99.90
8178;DHT22;4130;48.740;9.132;2023-12-14T15:01:06;6.30;99.90
8178;DHT22;4130;48.740;9.132;2023-12-14T15:03:35;6.70;99.90
8178;DHT22;4130;48.740;9.132;2023-12-14T15:06:01;6.70;99.90
8178;DHT22;4130;48.740;9.132;2023-12-14T15:08:28;6.30;99.90
8178;DHT22;4130;48.740;9.132;2023-12-14T15:10:55;6.30;99.90
8178;DHT22;4130;48.740;9.132;2023-12-14T15:13:23;7.50;99.90
8178;DHT22;4130;48.740;9.132;2023-12-14T15:15:50;6.40;99.90
8178;DHT22;4130;48.740;9.132;2023-12-14T15:18:17;6.40;99.90
8178;DHT22;4130;48.740;9.132;2023-12-14T15:20:45;7.10;99.90
8178;DHT22;4130;48.740;9.132;2023-12-14T15:23:14;6.60;99.90
8178;DHT22;4130;48.740;9.132;2023-12-14T15:25:41;7.10;99.90
8178;DHT22;4130;48.740;9.132;2023-12-14T15:28:09;6.40;99.90
8178;DHT22;4130;48.740;9.132;2023-12-14T15:30:36;7.30;99.90
8178;DHT22;4130;48.740;9.132;2023-12-14T15:33:03;6.40;99.90
8178;DHT22;4130;48.740;9.132;2023-12-14T15:35:31;6.10;99.90
8178;DHT22;4130;48.740;9.132;2023-12-14T15:37:59;6.30;99.90
8178;DHT22;4130;48.740;9.132;2023-12-14T15:40:26;6.30;99.90
8178;DHT22;4130;48.740;9.132;2023-12-14T15:42:55;6.40;99.90
8178;DHT22;4130;48.740;9.132;2023-12-14T15:45:21;6.40;99.90
8178;DHT22;4130;48.740;9.132;2023-12-14T15:47:48;6.30;99.90
8178;DHT22;4130;48.740;9.132;2023-12-14T15:50:16;6.10;99.90
8178;DHT22;4130;48.740;9.132;2023-12-14T15:52:43;6.30;99.90
8178;DHT22;4130;48.740;9.132;2023-12-14T15:55:14;6.30;99.90
8178;DHT22;4130;48.740;9.132;2023-12-14T15:57:41;6.30;99.90
8178;DHT22;4130;48.740;9.132;2023-12-14T16:00:10;6.20;99.90
8178;DHT22;4130;48.740;9.132;2023-12-14T16:02:37;6.10;99.90
8178;DHT22;4130;48.740;9.132;2023-12-14T16:05:05;6.10;99.90
8178;DHT22;4130;48.740;9.132;2023-12-14T16:07:33;6.10;99.90
8178;DHT22;4130;48.740;9.132;2023-12-14T16:10:00;6.10;99.90
8178;DHT22;4130;48.740;9.132;2023-12-14T16:12:29;6.20;99.90
8178;DHT22;4130;48.740;9.132;2023-12-14T16:14:55;6.10;99.90
8178;DHT22;4130;48.740;9.132;2023-12-14T16:17:23;7.50;99.90
8178;DHT22;4130;48.740;9.132;2023-12-14T16:19:49;6.00;99.90
8178;DHT22;4130;48.740;9.132;2023-12-14T16:22:16;6.70;99.90
8178;DHT22;4130;48.740;9.132;2023-12-14T16:24:43;6.50;99.90
8178;DHT22;4130;48.740;9.132;2023-12-14T16:27:10;6.00;99.90
8178;DHT22;4130;48.740;9.132;2023-12-14T16:29:39;6.10;99.90
8178;DHT22;4130;48.740;9.132;2023-12-14T16:32:06;5.90;99.90
8178;DHT22;4130;48.740;9.132;2023-12-14T16:34:33;6.00;99.90
8178;DHT22;4130;48.740;9.132;2023-12-14T16:37:00;6.00;99.90
8178;DHT22;4130;48.740;9.132;2023-12-14T16:39:27;7.50;99.90
8178;DHT22;4130;48.740;9.132;2023-12-14T16:41:55;6.90;99.90